<?xml version="1.0" encoding="UTF-8" standalone="no" ?>
<gpx xmlns="http://www.topografix.com/GPX/1/1" xmlns:xsi="http://www.w3.org/2001/XMLSchema-instance" xsi:schemaLocation="http://www.topografix.com/GPX/1/1 http://www.topografix.com/GPX/1/1/gpx.xsd" version="1.1" creator="VisuGPX - https://www.visugpx.com">
  <metadata>
    <name>8561945-SEMINE TRAIL définitif</name>
  </metadata>
  <trk>
    <name><![CDATA[8561945-SEMINE TRAIL définitif]]></name>
    <trkseg>
      <trkpt lat="46.06699" lon="5.81436">
        <ele>485</ele>
        <time>2021-06-11T10:42:13Z</time>
      </trkpt>
      <trkpt lat="46.06709" lon="5.81461">
        <ele>486</ele>
        <time>2021-06-11T10:42:23Z</time>
      </trkpt>
      <trkpt lat="46.06737" lon="5.81516">
        <ele>488</ele>
        <time>2021-06-11T10:42:47Z</time>
      </trkpt>
      <trkpt lat="46.06762" lon="5.81537">
        <ele>488</ele>
        <time>2021-06-11T10:43:01Z</time>
      </trkpt>
      <trkpt lat="46.06821" lon="5.81553">
        <ele>486</ele>
        <time>2021-06-11T10:43:31Z</time>
      </trkpt>
      <trkpt lat="46.06862" lon="5.81564">
        <ele>484</ele>
        <time>2021-06-11T10:43:52Z</time>
      </trkpt>
      <trkpt lat="46.06884" lon="5.81596">
        <ele>484</ele>
        <time>2021-06-11T10:44:08Z</time>
      </trkpt>
      <trkpt lat="46.06893" lon="5.8161">
        <ele>484</ele>
        <time>2021-06-11T10:44:14Z</time>
      </trkpt>
      <trkpt lat="46.0691" lon="5.81602">
        <ele>482</ele>
        <time>2021-06-11T10:44:23Z</time>
      </trkpt>
      <trkpt lat="46.06973" lon="5.8162">
        <ele>476</ele>
        <time>2021-06-11T10:44:55Z</time>
      </trkpt>
      <trkpt lat="46.07046" lon="5.81637">
        <ele>467</ele>
        <time>2021-06-11T10:45:32Z</time>
      </trkpt>
      <trkpt lat="46.07097" lon="5.81633">
        <ele>458</ele>
        <time>2021-06-11T10:45:58Z</time>
      </trkpt>
      <trkpt lat="46.07123" lon="5.81661">
        <ele>454</ele>
        <time>2021-06-11T10:46:14Z</time>
      </trkpt>
      <trkpt lat="46.07141" lon="5.81709">
        <ele>452</ele>
        <time>2021-06-11T10:46:33Z</time>
      </trkpt>
      <trkpt lat="46.07186" lon="5.81756">
        <ele>449</ele>
        <time>2021-06-11T10:47:01Z</time>
      </trkpt>
      <trkpt lat="46.07227" lon="5.81772">
        <ele>448</ele>
        <time>2021-06-11T10:47:22Z</time>
      </trkpt>
      <trkpt lat="46.07255" lon="5.81798">
        <ele>452</ele>
        <time>2021-06-11T10:47:39Z</time>
      </trkpt>
      <trkpt lat="46.07301" lon="5.81756">
        <ele>443</ele>
        <time>2021-06-11T10:48:06Z</time>
      </trkpt>
      <trkpt lat="46.07336" lon="5.81738">
        <ele>439</ele>
        <time>2021-06-11T10:48:25Z</time>
      </trkpt>
      <trkpt lat="46.07371" lon="5.81735">
        <ele>436</ele>
        <time>2021-06-11T10:48:42Z</time>
      </trkpt>
      <trkpt lat="46.07429" lon="5.81729">
        <ele>432</ele>
        <time>2021-06-11T10:49:11Z</time>
      </trkpt>
      <trkpt lat="46.07469" lon="5.81655">
        <ele>422</ele>
        <time>2021-06-11T10:49:44Z</time>
      </trkpt>
      <trkpt lat="46.07484" lon="5.81643">
        <ele>421</ele>
        <time>2021-06-11T10:49:53Z</time>
      </trkpt>
      <trkpt lat="46.0752" lon="5.81628">
        <ele>420</ele>
        <time>2021-06-11T10:50:11Z</time>
      </trkpt>
      <trkpt lat="46.076" lon="5.81616">
        <ele>421</ele>
        <time>2021-06-11T10:50:52Z</time>
      </trkpt>
      <trkpt lat="46.07675" lon="5.81596">
        <ele>413</ele>
        <time>2021-06-11T10:51:30Z</time>
      </trkpt>
      <trkpt lat="46.07714" lon="5.81571">
        <ele>406</ele>
        <time>2021-06-11T10:51:51Z</time>
      </trkpt>
      <trkpt lat="46.07768" lon="5.81547">
        <ele>400</ele>
        <time>2021-06-11T10:52:19Z</time>
      </trkpt>
      <trkpt lat="46.07793" lon="5.815">
        <ele>389</ele>
        <time>2021-06-11T10:52:40Z</time>
      </trkpt>
      <trkpt lat="46.07856" lon="5.81549">
        <ele>388</ele>
        <time>2021-06-11T10:53:16Z</time>
      </trkpt>
      <trkpt lat="46.07942" lon="5.81586">
        <ele>367</ele>
        <time>2021-06-11T10:54:01Z</time>
      </trkpt>
      <trkpt lat="46.08012" lon="5.81601">
        <ele>350</ele>
        <time>2021-06-11T10:54:36Z</time>
      </trkpt>
      <trkpt lat="46.08033" lon="5.81672">
        <ele>352</ele>
        <time>2021-06-11T10:55:03Z</time>
      </trkpt>
      <trkpt lat="46.0803" lon="5.81753">
        <ele>356</ele>
        <time>2021-06-11T10:55:31Z</time>
      </trkpt>
      <trkpt lat="46.08043" lon="5.81777">
        <ele>358</ele>
        <time>2021-06-11T10:55:42Z</time>
      </trkpt>
      <trkpt lat="46.08072" lon="5.8173">
        <ele>350</ele>
        <time>2021-06-11T10:56:03Z</time>
      </trkpt>
      <trkpt lat="46.08098" lon="5.81722">
        <ele>348</ele>
        <time>2021-06-11T10:56:17Z</time>
      </trkpt>
      <trkpt lat="46.08134" lon="5.8172">
        <ele>348</ele>
        <time>2021-06-11T10:56:35Z</time>
      </trkpt>
      <trkpt lat="46.08148" lon="5.81728">
        <ele>349</ele>
        <time>2021-06-11T10:56:42Z</time>
      </trkpt>
      <trkpt lat="46.08172" lon="5.81742">
        <ele>350</ele>
        <time>2021-06-11T10:56:55Z</time>
      </trkpt>
      <trkpt lat="46.08173" lon="5.81793">
        <ele>358</ele>
        <time>2021-06-11T10:57:13Z</time>
      </trkpt>
      <trkpt lat="46.08167" lon="5.81834">
        <ele>366</ele>
        <time>2021-06-11T10:57:28Z</time>
      </trkpt>
      <trkpt lat="46.0815" lon="5.81882">
        <ele>372</ele>
        <time>2021-06-11T10:57:46Z</time>
      </trkpt>
      <trkpt lat="46.0814" lon="5.81904">
        <ele>375</ele>
        <time>2021-06-11T10:57:55Z</time>
      </trkpt>
      <trkpt lat="46.08131" lon="5.81934">
        <ele>379</ele>
        <time>2021-06-11T10:58:07Z</time>
      </trkpt>
      <trkpt lat="46.08189" lon="5.81977">
        <ele>384</ele>
        <time>2021-06-11T10:58:39Z</time>
      </trkpt>
      <trkpt lat="46.0823" lon="5.82026">
        <ele>389</ele>
        <time>2021-06-11T10:59:06Z</time>
      </trkpt>
      <trkpt lat="46.08238" lon="5.82074">
        <ele>398</ele>
        <time>2021-06-11T10:59:23Z</time>
      </trkpt>
      <trkpt lat="46.08248" lon="5.82076">
        <ele>397</ele>
        <time>2021-06-11T10:59:28Z</time>
      </trkpt>
      <trkpt lat="46.08268" lon="5.82047">
        <ele>391</ele>
        <time>2021-06-11T10:59:42Z</time>
      </trkpt>
      <trkpt lat="46.08316" lon="5.82048">
        <ele>389</ele>
        <time>2021-06-11T11:00:06Z</time>
      </trkpt>
      <trkpt lat="46.08499" lon="5.81991">
        <ele>399</ele>
        <time>2021-06-11T11:01:40Z</time>
      </trkpt>
      <trkpt lat="46.08486" lon="5.82144">
        <ele>436</ele>
        <time>2021-06-11T11:02:34Z</time>
      </trkpt>
      <trkpt lat="46.08493" lon="5.82209">
        <ele>444</ele>
        <time>2021-06-11T11:02:56Z</time>
      </trkpt>
      <trkpt lat="46.08483" lon="5.82244">
        <ele>448</ele>
        <time>2021-06-11T11:03:10Z</time>
      </trkpt>
      <trkpt lat="46.08471" lon="5.82266">
        <ele>448</ele>
        <time>2021-06-11T11:03:19Z</time>
      </trkpt>
      <trkpt lat="46.08458" lon="5.8227">
        <ele>449</ele>
        <time>2021-06-11T11:03:26Z</time>
      </trkpt>
      <trkpt lat="46.08425" lon="5.82263">
        <ele>453</ele>
        <time>2021-06-11T11:03:43Z</time>
      </trkpt>
      <trkpt lat="46.08399" lon="5.82268">
        <ele>452</ele>
        <time>2021-06-11T11:03:56Z</time>
      </trkpt>
      <trkpt lat="46.08347" lon="5.82296">
        <ele>448</ele>
        <time>2021-06-11T11:04:24Z</time>
      </trkpt>
      <trkpt lat="46.0833" lon="5.82333">
        <ele>452</ele>
        <time>2021-06-11T11:04:39Z</time>
      </trkpt>
      <trkpt lat="46.08326" lon="5.82393">
        <ele>457</ele>
        <time>2021-06-11T11:05:00Z</time>
      </trkpt>
      <trkpt lat="46.08327" lon="5.82474">
        <ele>462</ele>
        <time>2021-06-11T11:05:28Z</time>
      </trkpt>
      <trkpt lat="46.08309" lon="5.82519">
        <ele>466</ele>
        <time>2021-06-11T11:05:46Z</time>
      </trkpt>
      <trkpt lat="46.08287" lon="5.82558">
        <ele>471</ele>
        <time>2021-06-11T11:06:03Z</time>
      </trkpt>
      <trkpt lat="46.08263" lon="5.82585">
        <ele>474</ele>
        <time>2021-06-11T11:06:19Z</time>
      </trkpt>
      <trkpt lat="46.08244" lon="5.82663">
        <ele>477</ele>
        <time>2021-06-11T11:06:47Z</time>
      </trkpt>
      <trkpt lat="46.08186" lon="5.82759">
        <ele>481</ele>
        <time>2021-06-11T11:07:32Z</time>
      </trkpt>
      <trkpt lat="46.08157" lon="5.82804">
        <ele>485</ele>
        <time>2021-06-11T11:07:53Z</time>
      </trkpt>
      <trkpt lat="46.08139" lon="5.82825">
        <ele>486</ele>
        <time>2021-06-11T11:08:04Z</time>
      </trkpt>
      <trkpt lat="46.08168" lon="5.82865">
        <ele>485</ele>
        <time>2021-06-11T11:08:25Z</time>
      </trkpt>
      <trkpt lat="46.08203" lon="5.82937">
        <ele>483</ele>
        <time>2021-06-11T11:08:55Z</time>
      </trkpt>
      <trkpt lat="46.08221" lon="5.82952">
        <ele>482</ele>
        <time>2021-06-11T11:09:05Z</time>
      </trkpt>
      <trkpt lat="46.08241" lon="5.82955">
        <ele>482</ele>
        <time>2021-06-11T11:09:16Z</time>
      </trkpt>
      <trkpt lat="46.08263" lon="5.82964">
        <ele>481</ele>
        <time>2021-06-11T11:09:27Z</time>
      </trkpt>
      <trkpt lat="46.08342" lon="5.83026">
        <ele>479</ele>
        <time>2021-06-11T11:10:12Z</time>
      </trkpt>
      <trkpt lat="46.08352" lon="5.83041">
        <ele>479</ele>
        <time>2021-06-11T11:10:19Z</time>
      </trkpt>
      <trkpt lat="46.08355" lon="5.83057">
        <ele>480</ele>
        <time>2021-06-11T11:10:25Z</time>
      </trkpt>
      <trkpt lat="46.08358" lon="5.83092">
        <ele>481</ele>
        <time>2021-06-11T11:10:37Z</time>
      </trkpt>
      <trkpt lat="46.08372" lon="5.83101">
        <ele>480</ele>
        <time>2021-06-11T11:10:45Z</time>
      </trkpt>
      <trkpt lat="46.0839" lon="5.83095">
        <ele>479</ele>
        <time>2021-06-11T11:10:54Z</time>
      </trkpt>
      <trkpt lat="46.08436" lon="5.83055">
        <ele>476</ele>
        <time>2021-06-11T11:11:21Z</time>
      </trkpt>
      <trkpt lat="46.0847" lon="5.83033">
        <ele>477</ele>
        <time>2021-06-11T11:11:40Z</time>
      </trkpt>
      <trkpt lat="46.08542" lon="5.82943">
        <ele>473</ele>
        <time>2021-06-11T11:12:27Z</time>
      </trkpt>
      <trkpt lat="46.08593" lon="5.82923">
        <ele>472</ele>
        <time>2021-06-11T11:12:54Z</time>
      </trkpt>
      <trkpt lat="46.08657" lon="5.82822">
        <ele>462</ele>
        <time>2021-06-11T11:13:41Z</time>
      </trkpt>
      <trkpt lat="46.08678" lon="5.82767">
        <ele>452</ele>
        <time>2021-06-11T11:14:03Z</time>
      </trkpt>
      <trkpt lat="46.08708" lon="5.8264">
        <ele>436</ele>
        <time>2021-06-11T11:14:50Z</time>
      </trkpt>
      <trkpt lat="46.08754" lon="5.8252">
        <ele>421</ele>
        <time>2021-06-11T11:15:37Z</time>
      </trkpt>
      <trkpt lat="46.08779" lon="5.8238">
        <ele>404</ele>
        <time>2021-06-11T11:16:27Z</time>
      </trkpt>
      <trkpt lat="46.08783" lon="5.82238">
        <ele>388</ele>
        <time>2021-06-11T11:17:17Z</time>
      </trkpt>
      <trkpt lat="46.0879" lon="5.82179">
        <ele>372</ele>
        <time>2021-06-11T11:17:38Z</time>
      </trkpt>
      <trkpt lat="46.08836" lon="5.82172">
        <ele>372</ele>
        <time>2021-06-11T11:18:01Z</time>
      </trkpt>
      <trkpt lat="46.08874" lon="5.82226">
        <ele>369</ele>
        <time>2021-06-11T11:18:27Z</time>
      </trkpt>
      <trkpt lat="46.08891" lon="5.82302">
        <ele>359</ele>
        <time>2021-06-11T11:18:55Z</time>
      </trkpt>
      <trkpt lat="46.08878" lon="5.82378">
        <ele>368</ele>
        <time>2021-06-11T11:19:22Z</time>
      </trkpt>
      <trkpt lat="46.08878" lon="5.82466">
        <ele>373</ele>
        <time>2021-06-11T11:19:53Z</time>
      </trkpt>
      <trkpt lat="46.08915" lon="5.82464">
        <ele>355</ele>
        <time>2021-06-11T11:20:11Z</time>
      </trkpt>
      <trkpt lat="46.08946" lon="5.82413">
        <ele>346</ele>
        <time>2021-06-11T11:20:35Z</time>
      </trkpt>
      <trkpt lat="46.09003" lon="5.82384">
        <ele>344</ele>
        <time>2021-06-11T11:21:05Z</time>
      </trkpt>
      <trkpt lat="46.09056" lon="5.82366">
        <ele>345</ele>
        <time>2021-06-11T11:21:32Z</time>
      </trkpt>
      <trkpt lat="46.09151" lon="5.82358">
        <ele>344</ele>
        <time>2021-06-11T11:22:20Z</time>
      </trkpt>
      <trkpt lat="46.09218" lon="5.82399">
        <ele>349</ele>
        <time>2021-06-11T11:22:56Z</time>
      </trkpt>
      <trkpt lat="46.09297" lon="5.8245">
        <ele>350</ele>
        <time>2021-06-11T11:23:40Z</time>
      </trkpt>
      <trkpt lat="46.09338" lon="5.8246">
        <ele>347</ele>
        <time>2021-06-11T11:24:01Z</time>
      </trkpt>
      <trkpt lat="46.09387" lon="5.82466">
        <ele>347</ele>
        <time>2021-06-11T11:24:25Z</time>
      </trkpt>
      <trkpt lat="46.09414" lon="5.82465">
        <ele>346</ele>
        <time>2021-06-11T11:24:39Z</time>
      </trkpt>
      <trkpt lat="46.09399" lon="5.8261">
        <ele>392</ele>
        <time>2021-06-11T11:25:30Z</time>
      </trkpt>
      <trkpt lat="46.09367" lon="5.82641">
        <ele>400</ele>
        <time>2021-06-11T11:25:49Z</time>
      </trkpt>
      <trkpt lat="46.09326" lon="5.82663">
        <ele>405</ele>
        <time>2021-06-11T11:26:11Z</time>
      </trkpt>
      <trkpt lat="46.09299" lon="5.82695">
        <ele>414</ele>
        <time>2021-06-11T11:26:28Z</time>
      </trkpt>
      <trkpt lat="46.09255" lon="5.82721">
        <ele>425</ele>
        <time>2021-06-11T11:26:52Z</time>
      </trkpt>
      <trkpt lat="46.09259" lon="5.82761">
        <ele>433</ele>
        <time>2021-06-11T11:27:06Z</time>
      </trkpt>
      <trkpt lat="46.09274" lon="5.82812">
        <ele>439</ele>
        <time>2021-06-11T11:27:25Z</time>
      </trkpt>
      <trkpt lat="46.09291" lon="5.82861">
        <ele>443</ele>
        <time>2021-06-11T11:27:44Z</time>
      </trkpt>
      <trkpt lat="46.09324" lon="5.82911">
        <ele>443</ele>
        <time>2021-06-11T11:28:08Z</time>
      </trkpt>
      <trkpt lat="46.09315" lon="5.8294">
        <ele>450</ele>
        <time>2021-06-11T11:28:19Z</time>
      </trkpt>
      <trkpt lat="46.09278" lon="5.82969">
        <ele>459</ele>
        <time>2021-06-11T11:28:40Z</time>
      </trkpt>
      <trkpt lat="46.09269" lon="5.82993">
        <ele>462</ele>
        <time>2021-06-11T11:28:50Z</time>
      </trkpt>
      <trkpt lat="46.09239" lon="5.82996">
        <ele>463</ele>
        <time>2021-06-11T11:29:05Z</time>
      </trkpt>
      <trkpt lat="46.092" lon="5.82973">
        <ele>463</ele>
        <time>2021-06-11T11:29:26Z</time>
      </trkpt>
      <trkpt lat="46.09158" lon="5.82984">
        <ele>465</ele>
        <time>2021-06-11T11:29:47Z</time>
      </trkpt>
      <trkpt lat="46.09105" lon="5.83003">
        <ele>469</ele>
        <time>2021-06-11T11:30:15Z</time>
      </trkpt>
      <trkpt lat="46.09011" lon="5.83073">
        <ele>486</ele>
        <time>2021-06-11T11:31:08Z</time>
      </trkpt>
      <trkpt lat="46.08961" lon="5.83116">
        <ele>484</ele>
        <time>2021-06-11T11:31:37Z</time>
      </trkpt>
      <trkpt lat="46.08922" lon="5.83181">
        <ele>485</ele>
        <time>2021-06-11T11:32:06Z</time>
      </trkpt>
      <trkpt lat="46.08915" lon="5.83209">
        <ele>484</ele>
        <time>2021-06-11T11:32:17Z</time>
      </trkpt>
      <trkpt lat="46.0886" lon="5.83249">
        <ele>482</ele>
        <time>2021-06-11T11:32:48Z</time>
      </trkpt>
      <trkpt lat="46.08768" lon="5.83343">
        <ele>488</ele>
        <time>2021-06-11T11:33:44Z</time>
      </trkpt>
      <trkpt lat="46.08656" lon="5.83535">
        <ele>486</ele>
        <time>2021-06-11T11:35:11Z</time>
      </trkpt>
      <trkpt lat="46.08523" lon="5.83836">
        <ele>491</ele>
        <time>2021-06-11T11:37:15Z</time>
      </trkpt>
      <trkpt lat="46.08421" lon="5.83968">
        <ele>493</ele>
        <time>2021-06-11T11:38:24Z</time>
      </trkpt>
      <trkpt lat="46.08374" lon="5.84026">
        <ele>494</ele>
        <time>2021-06-11T11:38:55Z</time>
      </trkpt>
      <trkpt lat="46.08337" lon="5.84044">
        <ele>494</ele>
        <time>2021-06-11T11:39:14Z</time>
      </trkpt>
      <trkpt lat="46.08295" lon="5.84041">
        <ele>494</ele>
        <time>2021-06-11T11:39:35Z</time>
      </trkpt>
      <trkpt lat="46.08238" lon="5.83963">
        <ele>492</ele>
        <time>2021-06-11T11:40:14Z</time>
      </trkpt>
      <trkpt lat="46.08215" lon="5.83923">
        <ele>491</ele>
        <time>2021-06-11T11:40:33Z</time>
      </trkpt>
      <trkpt lat="46.08203" lon="5.8391">
        <ele>491</ele>
        <time>2021-06-11T11:40:40Z</time>
      </trkpt>
      <trkpt lat="46.08185" lon="5.83911">
        <ele>491</ele>
        <time>2021-06-11T11:40:49Z</time>
      </trkpt>
      <trkpt lat="46.08159" lon="5.8393">
        <ele>493</ele>
        <time>2021-06-11T11:41:04Z</time>
      </trkpt>
      <trkpt lat="46.08131" lon="5.83931">
        <ele>493</ele>
        <time>2021-06-11T11:41:18Z</time>
      </trkpt>
      <trkpt lat="46.0811" lon="5.83925">
        <ele>493</ele>
        <time>2021-06-11T11:41:28Z</time>
      </trkpt>
      <trkpt lat="46.08101" lon="5.83955">
        <ele>496</ele>
        <time>2021-06-11T11:41:40Z</time>
      </trkpt>
      <trkpt lat="46.08088" lon="5.8394">
        <ele>495</ele>
        <time>2021-06-11T11:41:48Z</time>
      </trkpt>
      <trkpt lat="46.08054" lon="5.83927">
        <ele>495</ele>
        <time>2021-06-11T11:42:06Z</time>
      </trkpt>
      <trkpt lat="46.08017" lon="5.83936">
        <ele>497</ele>
        <time>2021-06-11T11:42:24Z</time>
      </trkpt>
      <trkpt lat="46.07971" lon="5.8395">
        <ele>499</ele>
        <time>2021-06-11T11:42:48Z</time>
      </trkpt>
      <trkpt lat="46.07953" lon="5.8395">
        <ele>499</ele>
        <time>2021-06-11T11:42:57Z</time>
      </trkpt>
      <trkpt lat="46.07934" lon="5.83961">
        <ele>501</ele>
        <time>2021-06-11T11:43:07Z</time>
      </trkpt>
      <trkpt lat="46.07906" lon="5.83994">
        <ele>506</ele>
        <time>2021-06-11T11:43:25Z</time>
      </trkpt>
      <trkpt lat="46.07896" lon="5.84032">
        <ele>509</ele>
        <time>2021-06-11T11:43:39Z</time>
      </trkpt>
      <trkpt lat="46.07847" lon="5.84078">
        <ele>514</ele>
        <time>2021-06-11T11:44:09Z</time>
      </trkpt>
      <trkpt lat="46.0783" lon="5.8409">
        <ele>515</ele>
        <time>2021-06-11T11:44:18Z</time>
      </trkpt>
      <trkpt lat="46.07785" lon="5.84063">
        <ele>511</ele>
        <time>2021-06-11T11:44:43Z</time>
      </trkpt>
      <trkpt lat="46.07769" lon="5.84018">
        <ele>505</ele>
        <time>2021-06-11T11:45:00Z</time>
      </trkpt>
      <trkpt lat="46.07725" lon="5.84021">
        <ele>506</ele>
        <time>2021-06-11T11:45:22Z</time>
      </trkpt>
      <trkpt lat="46.07691" lon="5.84052">
        <ele>509</ele>
        <time>2021-06-11T11:45:42Z</time>
      </trkpt>
      <trkpt lat="46.0765" lon="5.8401">
        <ele>508</ele>
        <time>2021-06-11T11:46:07Z</time>
      </trkpt>
      <trkpt lat="46.07643" lon="5.83985">
        <ele>507</ele>
        <time>2021-06-11T11:46:17Z</time>
      </trkpt>
      <trkpt lat="46.07646" lon="5.83976">
        <ele>507</ele>
        <time>2021-06-11T11:46:20Z</time>
      </trkpt>
      <trkpt lat="46.07676" lon="5.83955">
        <ele>505</ele>
        <time>2021-06-11T11:46:37Z</time>
      </trkpt>
      <trkpt lat="46.07699" lon="5.83929">
        <ele>501</ele>
        <time>2021-06-11T11:46:52Z</time>
      </trkpt>
      <trkpt lat="46.07733" lon="5.83912">
        <ele>496</ele>
        <time>2021-06-11T11:47:10Z</time>
      </trkpt>
      <trkpt lat="46.07757" lon="5.83888">
        <ele>495</ele>
        <time>2021-06-11T11:47:24Z</time>
      </trkpt>
      <trkpt lat="46.07787" lon="5.83874">
        <ele>494</ele>
        <time>2021-06-11T11:47:40Z</time>
      </trkpt>
      <trkpt lat="46.07822" lon="5.8386">
        <ele>493</ele>
        <time>2021-06-11T11:47:58Z</time>
      </trkpt>
      <trkpt lat="46.07838" lon="5.83852">
        <ele>492</ele>
        <time>2021-06-11T11:48:07Z</time>
      </trkpt>
      <trkpt lat="46.07857" lon="5.83841">
        <ele>491</ele>
        <time>2021-06-11T11:48:17Z</time>
      </trkpt>
      <trkpt lat="46.07868" lon="5.83825">
        <ele>491</ele>
        <time>2021-06-11T11:48:25Z</time>
      </trkpt>
      <trkpt lat="46.07879" lon="5.83787">
        <ele>493</ele>
        <time>2021-06-11T11:48:39Z</time>
      </trkpt>
      <trkpt lat="46.07892" lon="5.83772">
        <ele>493</ele>
        <time>2021-06-11T11:48:47Z</time>
      </trkpt>
      <trkpt lat="46.07904" lon="5.83772">
        <ele>492</ele>
        <time>2021-06-11T11:48:53Z</time>
      </trkpt>
      <trkpt lat="46.07914" lon="5.83772">
        <ele>492</ele>
        <time>2021-06-11T11:48:58Z</time>
      </trkpt>
      <trkpt lat="46.07929" lon="5.83766">
        <ele>491</ele>
        <time>2021-06-11T11:49:06Z</time>
      </trkpt>
      <trkpt lat="46.07943" lon="5.83777">
        <ele>490</ele>
        <time>2021-06-11T11:49:14Z</time>
      </trkpt>
      <trkpt lat="46.07973" lon="5.83777">
        <ele>488</ele>
        <time>2021-06-11T11:49:29Z</time>
      </trkpt>
      <trkpt lat="46.08003" lon="5.83781">
        <ele>486</ele>
        <time>2021-06-11T11:49:44Z</time>
      </trkpt>
      <trkpt lat="46.08023" lon="5.83777">
        <ele>484</ele>
        <time>2021-06-11T11:49:54Z</time>
      </trkpt>
      <trkpt lat="46.08046" lon="5.83765">
        <ele>482</ele>
        <time>2021-06-11T11:50:07Z</time>
      </trkpt>
      <trkpt lat="46.08063" lon="5.83746">
        <ele>480</ele>
        <time>2021-06-11T11:50:17Z</time>
      </trkpt>
      <trkpt lat="46.08084" lon="5.83719">
        <ele>481</ele>
        <time>2021-06-11T11:50:31Z</time>
      </trkpt>
      <trkpt lat="46.08093" lon="5.83682">
        <ele>484</ele>
        <time>2021-06-11T11:50:45Z</time>
      </trkpt>
      <trkpt lat="46.08111" lon="5.83618">
        <ele>486</ele>
        <time>2021-06-11T11:51:09Z</time>
      </trkpt>
      <trkpt lat="46.08109" lon="5.83576">
        <ele>490</ele>
        <time>2021-06-11T11:51:24Z</time>
      </trkpt>
      <trkpt lat="46.08084" lon="5.83567">
        <ele>495</ele>
        <time>2021-06-11T11:51:36Z</time>
      </trkpt>
      <trkpt lat="46.08058" lon="5.83576">
        <ele>498</ele>
        <time>2021-06-11T11:51:50Z</time>
      </trkpt>
      <trkpt lat="46.08018" lon="5.83608">
        <ele>501</ele>
        <time>2021-06-11T11:52:13Z</time>
      </trkpt>
      <trkpt lat="46.08009" lon="5.83593">
        <ele>503</ele>
        <time>2021-06-11T11:52:20Z</time>
      </trkpt>
      <trkpt lat="46.08011" lon="5.83562">
        <ele>503</ele>
        <time>2021-06-11T11:52:30Z</time>
      </trkpt>
      <trkpt lat="46.08022" lon="5.83534">
        <ele>501</ele>
        <time>2021-06-11T11:52:42Z</time>
      </trkpt>
      <trkpt lat="46.08033" lon="5.83483">
        <ele>499</ele>
        <time>2021-06-11T11:53:00Z</time>
      </trkpt>
      <trkpt lat="46.08046" lon="5.83389">
        <ele>498</ele>
        <time>2021-06-11T11:53:33Z</time>
      </trkpt>
      <trkpt lat="46.08036" lon="5.8326">
        <ele>496</ele>
        <time>2021-06-11T11:54:18Z</time>
      </trkpt>
      <trkpt lat="46.07973" lon="5.83233">
        <ele>498</ele>
        <time>2021-06-11T11:54:51Z</time>
      </trkpt>
      <trkpt lat="46.07957" lon="5.83198">
        <ele>498</ele>
        <time>2021-06-11T11:55:06Z</time>
      </trkpt>
      <trkpt lat="46.07933" lon="5.83141">
        <ele>497</ele>
        <time>2021-06-11T11:55:29Z</time>
      </trkpt>
      <trkpt lat="46.07901" lon="5.83077">
        <ele>496</ele>
        <time>2021-06-11T11:55:56Z</time>
      </trkpt>
      <trkpt lat="46.07899" lon="5.83044">
        <ele>497</ele>
        <time>2021-06-11T11:56:08Z</time>
      </trkpt>
      <trkpt lat="46.07902" lon="5.83008">
        <ele>497</ele>
        <time>2021-06-11T11:56:21Z</time>
      </trkpt>
      <trkpt lat="46.07882" lon="5.82997">
        <ele>498</ele>
        <time>2021-06-11T11:56:31Z</time>
      </trkpt>
      <trkpt lat="46.07863" lon="5.82988">
        <ele>498</ele>
        <time>2021-06-11T11:56:41Z</time>
      </trkpt>
      <trkpt lat="46.07918" lon="5.82855">
        <ele>494</ele>
        <time>2021-06-11T11:57:35Z</time>
      </trkpt>
      <trkpt lat="46.08026" lon="5.82539">
        <ele>481</ele>
        <time>2021-06-11T11:59:37Z</time>
      </trkpt>
      <trkpt lat="46.08007" lon="5.82548">
        <ele>481</ele>
        <time>2021-06-11T11:59:47Z</time>
      </trkpt>
      <trkpt lat="46.07913" lon="5.82597">
        <ele>473</ele>
        <time>2021-06-11T12:00:37Z</time>
      </trkpt>
      <trkpt lat="46.07872" lon="5.82649">
        <ele>472</ele>
        <time>2021-06-11T12:01:05Z</time>
      </trkpt>
      <trkpt lat="46.07854" lon="5.82668">
        <ele>472</ele>
        <time>2021-06-11T12:01:16Z</time>
      </trkpt>
      <trkpt lat="46.07832" lon="5.82679">
        <ele>470</ele>
        <time>2021-06-11T12:01:27Z</time>
      </trkpt>
      <trkpt lat="46.07792" lon="5.82695">
        <ele>469</ele>
        <time>2021-06-11T12:01:48Z</time>
      </trkpt>
      <trkpt lat="46.07766" lon="5.82695">
        <ele>467</ele>
        <time>2021-06-11T12:02:01Z</time>
      </trkpt>
      <trkpt lat="46.07747" lon="5.82712">
        <ele>468</ele>
        <time>2021-06-11T12:02:12Z</time>
      </trkpt>
      <trkpt lat="46.07732" lon="5.82732">
        <ele>471</ele>
        <time>2021-06-11T12:02:23Z</time>
      </trkpt>
      <trkpt lat="46.07707" lon="5.8274">
        <ele>472</ele>
        <time>2021-06-11T12:02:35Z</time>
      </trkpt>
      <trkpt lat="46.07672" lon="5.8276">
        <ele>475</ele>
        <time>2021-06-11T12:02:54Z</time>
      </trkpt>
      <trkpt lat="46.07646" lon="5.8276">
        <ele>477</ele>
        <time>2021-06-11T12:03:07Z</time>
      </trkpt>
      <trkpt lat="46.0761" lon="5.82737">
        <ele>476</ele>
        <time>2021-06-11T12:03:27Z</time>
      </trkpt>
      <trkpt lat="46.07597" lon="5.82727">
        <ele>476</ele>
        <time>2021-06-11T12:03:34Z</time>
      </trkpt>
      <trkpt lat="46.07585" lon="5.82706">
        <ele>473</ele>
        <time>2021-06-11T12:03:44Z</time>
      </trkpt>
      <trkpt lat="46.07551" lon="5.82661">
        <ele>471</ele>
        <time>2021-06-11T12:04:07Z</time>
      </trkpt>
      <trkpt lat="46.07535" lon="5.82649">
        <ele>473</ele>
        <time>2021-06-11T12:04:16Z</time>
      </trkpt>
      <trkpt lat="46.07504" lon="5.82658">
        <ele>479</ele>
        <time>2021-06-11T12:04:32Z</time>
      </trkpt>
      <trkpt lat="46.07471" lon="5.82727">
        <ele>485</ele>
        <time>2021-06-11T12:05:01Z</time>
      </trkpt>
      <trkpt lat="46.07452" lon="5.82728">
        <ele>486</ele>
        <time>2021-06-11T12:05:10Z</time>
      </trkpt>
      <trkpt lat="46.07435" lon="5.82923">
        <ele>497</ele>
        <time>2021-06-11T12:06:19Z</time>
      </trkpt>
      <trkpt lat="46.07371" lon="5.8304">
        <ele>502</ele>
        <time>2021-06-11T12:07:10Z</time>
      </trkpt>
      <trkpt lat="46.07287" lon="5.83148">
        <ele>507</ele>
        <time>2021-06-11T12:08:07Z</time>
      </trkpt>
      <trkpt lat="46.07238" lon="5.83174">
        <ele>507</ele>
        <time>2021-06-11T12:08:33Z</time>
      </trkpt>
      <trkpt lat="46.07248" lon="5.83214">
        <ele>509</ele>
        <time>2021-06-11T12:08:48Z</time>
      </trkpt>
      <trkpt lat="46.07262" lon="5.83257">
        <ele>512</ele>
        <time>2021-06-11T12:09:04Z</time>
      </trkpt>
      <trkpt lat="46.0729" lon="5.83236">
        <ele>513</ele>
        <time>2021-06-11T12:09:20Z</time>
      </trkpt>
      <trkpt lat="46.07302" lon="5.83231">
        <ele>514</ele>
        <time>2021-06-11T12:09:26Z</time>
      </trkpt>
      <trkpt lat="46.07328" lon="5.83212">
        <ele>514</ele>
        <time>2021-06-11T12:09:41Z</time>
      </trkpt>
      <trkpt lat="46.07324" lon="5.83234">
        <ele>516</ele>
        <time>2021-06-11T12:09:49Z</time>
      </trkpt>
      <trkpt lat="46.07313" lon="5.83257">
        <ele>517</ele>
        <time>2021-06-11T12:09:58Z</time>
      </trkpt>
      <trkpt lat="46.0731" lon="5.83298">
        <ele>518</ele>
        <time>2021-06-11T12:10:13Z</time>
      </trkpt>
      <trkpt lat="46.07306" lon="5.83336">
        <ele>519</ele>
        <time>2021-06-11T12:10:26Z</time>
      </trkpt>
      <trkpt lat="46.0729" lon="5.83363">
        <ele>518</ele>
        <time>2021-06-11T12:10:38Z</time>
      </trkpt>
      <trkpt lat="46.07261" lon="5.83393">
        <ele>518</ele>
        <time>2021-06-11T12:10:56Z</time>
      </trkpt>
      <trkpt lat="46.07217" lon="5.83425">
        <ele>518</ele>
        <time>2021-06-11T12:11:21Z</time>
      </trkpt>
      <trkpt lat="46.07202" lon="5.83425">
        <ele>517</ele>
        <time>2021-06-11T12:11:28Z</time>
      </trkpt>
      <trkpt lat="46.07188" lon="5.8343">
        <ele>517</ele>
        <time>2021-06-11T12:11:36Z</time>
      </trkpt>
      <trkpt lat="46.0716" lon="5.83455">
        <ele>518</ele>
        <time>2021-06-11T12:11:52Z</time>
      </trkpt>
      <trkpt lat="46.0714" lon="5.83472">
        <ele>520</ele>
        <time>2021-06-11T12:12:04Z</time>
      </trkpt>
      <trkpt lat="46.07113" lon="5.83508">
        <ele>521</ele>
        <time>2021-06-11T12:12:22Z</time>
      </trkpt>
      <trkpt lat="46.07087" lon="5.83545">
        <ele>522</ele>
        <time>2021-06-11T12:12:40Z</time>
      </trkpt>
      <trkpt lat="46.07076" lon="5.83574">
        <ele>523</ele>
        <time>2021-06-11T12:12:52Z</time>
      </trkpt>
      <trkpt lat="46.0707" lon="5.83607">
        <ele>524</ele>
        <time>2021-06-11T12:13:04Z</time>
      </trkpt>
      <trkpt lat="46.07071" lon="5.8368">
        <ele>526</ele>
        <time>2021-06-11T12:13:29Z</time>
      </trkpt>
      <trkpt lat="46.07043" lon="5.83781">
        <ele>527</ele>
        <time>2021-06-11T12:14:07Z</time>
      </trkpt>
      <trkpt lat="46.07041" lon="5.83808">
        <ele>526</ele>
        <time>2021-06-11T12:14:16Z</time>
      </trkpt>
      <trkpt lat="46.07048" lon="5.83891">
        <ele>526</ele>
        <time>2021-06-11T12:14:45Z</time>
      </trkpt>
      <trkpt lat="46.07054" lon="5.83915">
        <ele>526</ele>
        <time>2021-06-11T12:14:54Z</time>
      </trkpt>
      <trkpt lat="46.07062" lon="5.83943">
        <ele>527</ele>
        <time>2021-06-11T12:15:05Z</time>
      </trkpt>
      <trkpt lat="46.07083" lon="5.83971">
        <ele>527</ele>
        <time>2021-06-11T12:15:19Z</time>
      </trkpt>
      <trkpt lat="46.071" lon="5.83993">
        <ele>527</ele>
        <time>2021-06-11T12:15:30Z</time>
      </trkpt>
      <trkpt lat="46.07048" lon="5.84001">
        <ele>529</ele>
        <time>2021-06-11T12:15:56Z</time>
      </trkpt>
      <trkpt lat="46.07039" lon="5.84061">
        <ele>530</ele>
        <time>2021-06-11T12:16:18Z</time>
      </trkpt>
      <trkpt lat="46.07004" lon="5.8415">
        <ele>531</ele>
        <time>2021-06-11T12:16:53Z</time>
      </trkpt>
      <trkpt lat="46.06979" lon="5.84209">
        <ele>530</ele>
        <time>2021-06-11T12:17:17Z</time>
      </trkpt>
      <trkpt lat="46.06985" lon="5.84288">
        <ele>528</ele>
        <time>2021-06-11T12:17:45Z</time>
      </trkpt>
      <trkpt lat="46.06999" lon="5.84329">
        <ele>527</ele>
        <time>2021-06-11T12:18:01Z</time>
      </trkpt>
      <trkpt lat="46.07048" lon="5.84409">
        <ele>528</ele>
        <time>2021-06-11T12:18:38Z</time>
      </trkpt>
      <trkpt lat="46.07052" lon="5.84433">
        <ele>529</ele>
        <time>2021-06-11T12:18:46Z</time>
      </trkpt>
      <trkpt lat="46.07022" lon="5.84439">
        <ele>529</ele>
        <time>2021-06-11T12:19:02Z</time>
      </trkpt>
      <trkpt lat="46.06949" lon="5.84465">
        <ele>532</ele>
        <time>2021-06-11T12:19:39Z</time>
      </trkpt>
      <trkpt lat="46.06952" lon="5.84534">
        <ele>535</ele>
        <time>2021-06-11T12:20:03Z</time>
      </trkpt>
      <trkpt lat="46.06935" lon="5.84565">
        <ele>537</ele>
        <time>2021-06-11T12:20:17Z</time>
      </trkpt>
      <trkpt lat="46.06896" lon="5.84604">
        <ele>539</ele>
        <time>2021-06-11T12:20:41Z</time>
      </trkpt>
      <trkpt lat="46.06901" lon="5.84726">
        <ele>539</ele>
        <time>2021-06-11T12:21:23Z</time>
      </trkpt>
      <trkpt lat="46.06894" lon="5.84765">
        <ele>538</ele>
        <time>2021-06-11T12:21:37Z</time>
      </trkpt>
      <trkpt lat="46.06841" lon="5.84855">
        <ele>540</ele>
        <time>2021-06-11T12:22:18Z</time>
      </trkpt>
      <trkpt lat="46.06892" lon="5.84955">
        <ele>538</ele>
        <time>2021-06-11T12:23:01Z</time>
      </trkpt>
      <trkpt lat="46.06848" lon="5.85052">
        <ele>541</ele>
        <time>2021-06-11T12:23:41Z</time>
      </trkpt>
      <trkpt lat="46.06902" lon="5.85081">
        <ele>537</ele>
        <time>2021-06-11T12:24:10Z</time>
      </trkpt>
      <trkpt lat="46.06879" lon="5.85173">
        <ele>538</ele>
        <time>2021-06-11T12:24:44Z</time>
      </trkpt>
      <trkpt lat="46.06854" lon="5.85234">
        <ele>540</ele>
        <time>2021-06-11T12:25:09Z</time>
      </trkpt>
      <trkpt lat="46.06829" lon="5.85246">
        <ele>541</ele>
        <time>2021-06-11T12:25:22Z</time>
      </trkpt>
      <trkpt lat="46.06808" lon="5.85215">
        <ele>541</ele>
        <time>2021-06-11T12:25:37Z</time>
      </trkpt>
      <trkpt lat="46.06778" lon="5.85214">
        <ele>541</ele>
        <time>2021-06-11T12:25:52Z</time>
      </trkpt>
      <trkpt lat="46.06745" lon="5.85194">
        <ele>541</ele>
        <time>2021-06-11T12:26:10Z</time>
      </trkpt>
      <trkpt lat="46.06726" lon="5.85154">
        <ele>543</ele>
        <time>2021-06-11T12:26:27Z</time>
      </trkpt>
      <trkpt lat="46.06702" lon="5.85131">
        <ele>544</ele>
        <time>2021-06-11T12:26:41Z</time>
      </trkpt>
      <trkpt lat="46.06661" lon="5.85123">
        <ele>544</ele>
        <time>2021-06-11T12:27:02Z</time>
      </trkpt>
      <trkpt lat="46.06665" lon="5.85078">
        <ele>544</ele>
        <time>2021-06-11T12:27:18Z</time>
      </trkpt>
      <trkpt lat="46.06604" lon="5.85064">
        <ele>543</ele>
        <time>2021-06-11T12:27:49Z</time>
      </trkpt>
      <trkpt lat="46.06595" lon="5.84989">
        <ele>543</ele>
        <time>2021-06-11T12:28:15Z</time>
      </trkpt>
      <trkpt lat="46.06572" lon="5.84941">
        <ele>541</ele>
        <time>2021-06-11T12:28:35Z</time>
      </trkpt>
      <trkpt lat="46.06562" lon="5.84851">
        <ele>540</ele>
        <time>2021-06-11T12:29:07Z</time>
      </trkpt>
      <trkpt lat="46.06537" lon="5.84717">
        <ele>539</ele>
        <time>2021-06-11T12:29:55Z</time>
      </trkpt>
      <trkpt lat="46.06549" lon="5.84668">
        <ele>540</ele>
        <time>2021-06-11T12:30:13Z</time>
      </trkpt>
      <trkpt lat="46.06546" lon="5.84617">
        <ele>539</ele>
        <time>2021-06-11T12:30:31Z</time>
      </trkpt>
      <trkpt lat="46.06568" lon="5.84536">
        <ele>541</ele>
        <time>2021-06-11T12:31:01Z</time>
      </trkpt>
      <trkpt lat="46.06569" lon="5.84501">
        <ele>541</ele>
        <time>2021-06-11T12:31:13Z</time>
      </trkpt>
      <trkpt lat="46.06539" lon="5.84449">
        <ele>539</ele>
        <time>2021-06-11T12:31:37Z</time>
      </trkpt>
      <trkpt lat="46.065" lon="5.84397">
        <ele>539</ele>
        <time>2021-06-11T12:32:03Z</time>
      </trkpt>
      <trkpt lat="46.0647" lon="5.84356">
        <ele>539</ele>
        <time>2021-06-11T12:32:24Z</time>
      </trkpt>
      <trkpt lat="46.06433" lon="5.84249">
        <ele>536</ele>
        <time>2021-06-11T12:33:06Z</time>
      </trkpt>
      <trkpt lat="46.06433" lon="5.84215">
        <ele>537</ele>
        <time>2021-06-11T12:33:17Z</time>
      </trkpt>
      <trkpt lat="46.06464" lon="5.84174">
        <ele>536</ele>
        <time>2021-06-11T12:33:38Z</time>
      </trkpt>
      <trkpt lat="46.06499" lon="5.84143">
        <ele>536</ele>
        <time>2021-06-11T12:33:59Z</time>
      </trkpt>
      <trkpt lat="46.06523" lon="5.84128">
        <ele>536</ele>
        <time>2021-06-11T12:34:12Z</time>
      </trkpt>
      <trkpt lat="46.06538" lon="5.84106">
        <ele>536</ele>
        <time>2021-06-11T12:34:23Z</time>
      </trkpt>
      <trkpt lat="46.06554" lon="5.84079">
        <ele>536</ele>
        <time>2021-06-11T12:34:35Z</time>
      </trkpt>
      <trkpt lat="46.06543" lon="5.84009">
        <ele>536</ele>
        <time>2021-06-11T12:35:00Z</time>
      </trkpt>
      <trkpt lat="46.0652" lon="5.83913">
        <ele>533</ele>
        <time>2021-06-11T12:35:35Z</time>
      </trkpt>
      <trkpt lat="46.06527" lon="5.83848">
        <ele>532</ele>
        <time>2021-06-11T12:35:58Z</time>
      </trkpt>
      <trkpt lat="46.06538" lon="5.83706">
        <ele>533</ele>
        <time>2021-06-11T12:36:48Z</time>
      </trkpt>
      <trkpt lat="46.06591" lon="5.83694">
        <ele>535</ele>
        <time>2021-06-11T12:37:15Z</time>
      </trkpt>
      <trkpt lat="46.06671" lon="5.83712">
        <ele>535</ele>
        <time>2021-06-11T12:37:55Z</time>
      </trkpt>
      <trkpt lat="46.06724" lon="5.83743">
        <ele>534</ele>
        <time>2021-06-11T12:38:24Z</time>
      </trkpt>
      <trkpt lat="46.06778" lon="5.83756">
        <ele>533</ele>
        <time>2021-06-11T12:38:51Z</time>
      </trkpt>
      <trkpt lat="46.06783" lon="5.83715">
        <ele>534</ele>
        <time>2021-06-11T12:39:06Z</time>
      </trkpt>
      <trkpt lat="46.06762" lon="5.83698">
        <ele>535</ele>
        <time>2021-06-11T12:39:18Z</time>
      </trkpt>
      <trkpt lat="46.06778" lon="5.83658">
        <ele>536</ele>
        <time>2021-06-11T12:39:34Z</time>
      </trkpt>
      <trkpt lat="46.06771" lon="5.83629">
        <ele>536</ele>
        <time>2021-06-11T12:39:44Z</time>
      </trkpt>
      <trkpt lat="46.06742" lon="5.83575">
        <ele>536</ele>
        <time>2021-06-11T12:40:08Z</time>
      </trkpt>
      <trkpt lat="46.06729" lon="5.83516">
        <ele>534</ele>
        <time>2021-06-11T12:40:29Z</time>
      </trkpt>
      <trkpt lat="46.06681" lon="5.83552">
        <ele>534</ele>
        <time>2021-06-11T12:40:57Z</time>
      </trkpt>
      <trkpt lat="46.0665" lon="5.83565">
        <ele>534</ele>
        <time>2021-06-11T12:41:13Z</time>
      </trkpt>
      <trkpt lat="46.06558" lon="5.83632">
        <ele>534</ele>
        <time>2021-06-11T12:42:04Z</time>
      </trkpt>
      <trkpt lat="46.06526" lon="5.83662">
        <ele>533</ele>
        <time>2021-06-11T12:42:23Z</time>
      </trkpt>
      <trkpt lat="46.06505" lon="5.83712">
        <ele>532</ele>
        <time>2021-06-11T12:42:44Z</time>
      </trkpt>
      <trkpt lat="46.06443" lon="5.83683">
        <ele>533</ele>
        <time>2021-06-11T12:43:16Z</time>
      </trkpt>
      <trkpt lat="46.06402" lon="5.83655">
        <ele>532</ele>
        <time>2021-06-11T12:43:39Z</time>
      </trkpt>
      <trkpt lat="46.06382" lon="5.83654">
        <ele>531</ele>
        <time>2021-06-11T12:43:49Z</time>
      </trkpt>
      <trkpt lat="46.06363" lon="5.83675">
        <ele>531</ele>
        <time>2021-06-11T12:44:01Z</time>
      </trkpt>
      <trkpt lat="46.06306" lon="5.83695">
        <ele>530</ele>
        <time>2021-06-11T12:44:30Z</time>
      </trkpt>
      <trkpt lat="46.06245" lon="5.83691">
        <ele>530</ele>
        <time>2021-06-11T12:45:01Z</time>
      </trkpt>
      <trkpt lat="46.06219" lon="5.83699">
        <ele>529</ele>
        <time>2021-06-11T12:45:14Z</time>
      </trkpt>
      <trkpt lat="46.06198" lon="5.83709">
        <ele>529</ele>
        <time>2021-06-11T12:45:25Z</time>
      </trkpt>
      <trkpt lat="46.06185" lon="5.83607">
        <ele>525</ele>
        <time>2021-06-11T12:46:01Z</time>
      </trkpt>
      <trkpt lat="46.06214" lon="5.83519">
        <ele>523</ele>
        <time>2021-06-11T12:46:35Z</time>
      </trkpt>
      <trkpt lat="46.06267" lon="5.83424">
        <ele>524</ele>
        <time>2021-06-11T12:47:17Z</time>
      </trkpt>
      <trkpt lat="46.06281" lon="5.83314">
        <ele>521</ele>
        <time>2021-06-11T12:47:56Z</time>
      </trkpt>
      <trkpt lat="46.06301" lon="5.83271">
        <ele>520</ele>
        <time>2021-06-11T12:48:14Z</time>
      </trkpt>
      <trkpt lat="46.06302" lon="5.83192">
        <ele>517</ele>
        <time>2021-06-11T12:48:42Z</time>
      </trkpt>
      <trkpt lat="46.06313" lon="5.83181">
        <ele>517</ele>
        <time>2021-06-11T12:48:48Z</time>
      </trkpt>
      <trkpt lat="46.06313" lon="5.83101">
        <ele>515</ele>
        <time>2021-06-11T12:49:16Z</time>
      </trkpt>
      <trkpt lat="46.06306" lon="5.8307">
        <ele>514</ele>
        <time>2021-06-11T12:49:28Z</time>
      </trkpt>
      <trkpt lat="46.0629" lon="5.83028">
        <ele>512</ele>
        <time>2021-06-11T12:49:44Z</time>
      </trkpt>
      <trkpt lat="46.06276" lon="5.83001">
        <ele>510</ele>
        <time>2021-06-11T12:49:56Z</time>
      </trkpt>
      <trkpt lat="46.06264" lon="5.82962">
        <ele>510</ele>
        <time>2021-06-11T12:50:11Z</time>
      </trkpt>
      <trkpt lat="46.06265" lon="5.82856">
        <ele>511</ele>
        <time>2021-06-11T12:50:47Z</time>
      </trkpt>
      <trkpt lat="46.06262" lon="5.82823">
        <ele>511</ele>
        <time>2021-06-11T12:50:59Z</time>
      </trkpt>
      <trkpt lat="46.06253" lon="5.82783">
        <ele>510</ele>
        <time>2021-06-11T12:51:14Z</time>
      </trkpt>
      <trkpt lat="46.06291" lon="5.82804">
        <ele>511</ele>
        <time>2021-06-11T12:51:34Z</time>
      </trkpt>
      <trkpt lat="46.06334" lon="5.82831">
        <ele>514</ele>
        <time>2021-06-11T12:51:57Z</time>
      </trkpt>
      <trkpt lat="46.06391" lon="5.82905">
        <ele>515</ele>
        <time>2021-06-11T12:52:36Z</time>
      </trkpt>
      <trkpt lat="46.06426" lon="5.82915">
        <ele>516</ele>
        <time>2021-06-11T12:52:54Z</time>
      </trkpt>
      <trkpt lat="46.06465" lon="5.82903">
        <ele>517</ele>
        <time>2021-06-11T12:53:14Z</time>
      </trkpt>
      <trkpt lat="46.06496" lon="5.82862">
        <ele>516</ele>
        <time>2021-06-11T12:53:35Z</time>
      </trkpt>
      <trkpt lat="46.06512" lon="5.82846">
        <ele>516</ele>
        <time>2021-06-11T12:53:44Z</time>
      </trkpt>
      <trkpt lat="46.06523" lon="5.82838">
        <ele>516</ele>
        <time>2021-06-11T12:53:51Z</time>
      </trkpt>
      <trkpt lat="46.06564" lon="5.82812">
        <ele>516</ele>
        <time>2021-06-11T12:54:13Z</time>
      </trkpt>
      <trkpt lat="46.06581" lon="5.82773">
        <ele>514</ele>
        <time>2021-06-11T12:54:29Z</time>
      </trkpt>
      <trkpt lat="46.06596" lon="5.8275">
        <ele>513</ele>
        <time>2021-06-11T12:54:40Z</time>
      </trkpt>
      <trkpt lat="46.06615" lon="5.82737">
        <ele>513</ele>
        <time>2021-06-11T12:54:51Z</time>
      </trkpt>
      <trkpt lat="46.06632" lon="5.82729">
        <ele>512</ele>
        <time>2021-06-11T12:54:59Z</time>
      </trkpt>
      <trkpt lat="46.06651" lon="5.82726">
        <ele>513</ele>
        <time>2021-06-11T12:55:09Z</time>
      </trkpt>
      <trkpt lat="46.06681" lon="5.82701">
        <ele>511</ele>
        <time>2021-06-11T12:55:26Z</time>
      </trkpt>
      <trkpt lat="46.06695" lon="5.82706">
        <ele>512</ele>
        <time>2021-06-11T12:55:34Z</time>
      </trkpt>
      <trkpt lat="46.06723" lon="5.82718">
        <ele>514</ele>
        <time>2021-06-11T12:55:48Z</time>
      </trkpt>
      <trkpt lat="46.06736" lon="5.82714">
        <ele>514</ele>
        <time>2021-06-11T12:55:55Z</time>
      </trkpt>
      <trkpt lat="46.06773" lon="5.8272">
        <ele>516</ele>
        <time>2021-06-11T12:56:14Z</time>
      </trkpt>
      <trkpt lat="46.06787" lon="5.82729">
        <ele>517</ele>
        <time>2021-06-11T12:56:21Z</time>
      </trkpt>
      <trkpt lat="46.06832" lon="5.82769">
        <ele>519</ele>
        <time>2021-06-11T12:56:48Z</time>
      </trkpt>
      <trkpt lat="46.06853" lon="5.82778">
        <ele>520</ele>
        <time>2021-06-11T12:56:59Z</time>
      </trkpt>
      <trkpt lat="46.06873" lon="5.82779">
        <ele>520</ele>
        <time>2021-06-11T12:57:09Z</time>
      </trkpt>
      <trkpt lat="46.06893" lon="5.8277">
        <ele>519</ele>
        <time>2021-06-11T12:57:19Z</time>
      </trkpt>
      <trkpt lat="46.06942" lon="5.8276">
        <ele>519</ele>
        <time>2021-06-11T12:57:44Z</time>
      </trkpt>
      <trkpt lat="46.06959" lon="5.82732">
        <ele>519</ele>
        <time>2021-06-11T12:57:57Z</time>
      </trkpt>
      <trkpt lat="46.06974" lon="5.82725">
        <ele>519</ele>
        <time>2021-06-11T12:58:05Z</time>
      </trkpt>
      <trkpt lat="46.06983" lon="5.82691">
        <ele>519</ele>
        <time>2021-06-11T12:58:17Z</time>
      </trkpt>
      <trkpt lat="46.07003" lon="5.82673">
        <ele>518</ele>
        <time>2021-06-11T12:58:29Z</time>
      </trkpt>
      <trkpt lat="46.07014" lon="5.82666">
        <ele>517</ele>
        <time>2021-06-11T12:58:35Z</time>
      </trkpt>
      <trkpt lat="46.07085" lon="5.82744">
        <ele>517</ele>
        <time>2021-06-11T12:59:20Z</time>
      </trkpt>
      <trkpt lat="46.07099" lon="5.82602">
        <ele>514</ele>
        <time>2021-06-11T13:00:10Z</time>
      </trkpt>
      <trkpt lat="46.07166" lon="5.82615">
        <ele>511</ele>
        <time>2021-06-11T13:00:43Z</time>
      </trkpt>
      <trkpt lat="46.07181" lon="5.82604">
        <ele>510</ele>
        <time>2021-06-11T13:00:52Z</time>
      </trkpt>
      <trkpt lat="46.07165" lon="5.82547">
        <ele>510</ele>
        <time>2021-06-11T13:01:13Z</time>
      </trkpt>
      <trkpt lat="46.07148" lon="5.82441">
        <ele>509</ele>
        <time>2021-06-11T13:01:51Z</time>
      </trkpt>
      <trkpt lat="46.07125" lon="5.82248">
        <ele>505</ele>
        <time>2021-06-11T13:02:59Z</time>
      </trkpt>
      <trkpt lat="46.07081" lon="5.82092">
        <ele>498</ele>
        <time>2021-06-11T13:03:57Z</time>
      </trkpt>
      <trkpt lat="46.07039" lon="5.82028">
        <ele>493</ele>
        <time>2021-06-11T13:04:28Z</time>
      </trkpt>
      <trkpt lat="46.07008" lon="5.81943">
        <ele>490</ele>
        <time>2021-06-11T13:05:01Z</time>
      </trkpt>
      <trkpt lat="46.06953" lon="5.81877">
        <ele>490</ele>
        <time>2021-06-11T13:05:37Z</time>
      </trkpt>
      <trkpt lat="46.06911" lon="5.81828">
        <ele>492</ele>
        <time>2021-06-11T13:06:04Z</time>
      </trkpt>
      <trkpt lat="46.06888" lon="5.81732">
        <ele>488</ele>
        <time>2021-06-11T13:06:39Z</time>
      </trkpt>
      <trkpt lat="46.06886" lon="5.81646">
        <ele>485</ele>
        <time>2021-06-11T13:07:09Z</time>
      </trkpt>
      <trkpt lat="46.06877" lon="5.8159">
        <ele>484</ele>
        <time>2021-06-11T13:07:29Z</time>
      </trkpt>
      <trkpt lat="46.0686" lon="5.81566">
        <ele>484</ele>
        <time>2021-06-11T13:07:41Z</time>
      </trkpt>
      <trkpt lat="46.06831" lon="5.81558">
        <ele>486</ele>
        <time>2021-06-11T13:07:56Z</time>
      </trkpt>
      <trkpt lat="46.06794" lon="5.81549">
        <ele>487</ele>
        <time>2021-06-11T13:08:15Z</time>
      </trkpt>
      <trkpt lat="46.06748" lon="5.81528">
        <ele>489</ele>
        <time>2021-06-11T13:08:39Z</time>
      </trkpt>
      <trkpt lat="46.06733" lon="5.81514">
        <ele>488</ele>
        <time>2021-06-11T13:08:48Z</time>
      </trkpt>
      <trkpt lat="46.0671" lon="5.81466">
        <ele>486</ele>
        <time>2021-06-11T13:09:08Z</time>
      </trkpt>
      <trkpt lat="46.06699" lon="5.81436">
        <ele>485</ele>
        <time>2021-06-11T13:09:20Z</time>
      </trkpt>
    </trkseg>
  </trk>
</gpx>